Time;durP1;ratioP1;P1;durP2;ratioP2;P2;SDS_P1;SDS_P2;PMS_P1;PMS_P2;Temp;Humidity;BMP_temperature;BMP_pressure;BME280_temperature;BME280_humidity;BME280_pressure;Samples;Min_cycle;Max_cycle;Signal;HPM_P1;HPM_P2
2022/05/06 00:00:55;;;;;;;;;17.33;17.33;;;;;;;;5081727;28;45286;-76
2022/05/06 00:03:20;;;;;;;;;23.67;21.67;;;;;;;;5082805;27;45322;-76
2022/05/06 00:05:45;;;;;;;;;27.33;27.33;;;;;;;;5082594;27;45317;-75
2022/05/06 00:08:11;;;;;;;;;26.00;24.33;;;;;;;;5082596;27;45352;-75
2022/05/06 00:10:36;;;;;;;;;24.00;23.00;;;;;;;;5081409;28;45267;-75
2022/05/06 00:13:01;;;;;;;;;22.00;21.00;;;;;;;;5082224;27;45243;-75
2022/05/06 00:15:26;;;;;;;;;20.67;20.67;;;;;;;;5088367;27;47807;-76
2022/05/06 00:17:52;;;;;;;;;21.00;19.00;;;;;;;;5119063;27;45461;-75
2022/05/06 00:20:17;;;;;;;;;23.33;23.33;;;;;;;;5103185;27;45282;-75
2022/05/06 00:22:43;;;;;;;;;25.67;22.67;;;;;;;;5101483;27;47477;-76
2022/05/06 00:25:09;;;;;;;;;24.67;23.67;;;;;;;;5102676;27;45282;-75
2022/05/06 00:27:37;;;;;;;;;21.33;21.33;;;;;;;;5101340;27;45279;-76
2022/05/06 00:30:02;;;;;;;;;22.00;21.00;;;;;;;;5101750;27;45416;-75
2022/05/06 00:32:28;;;;;;;;;23.67;23.67;;;;;;;;5101549;27;45594;-76
2022/05/06 00:34:55;;;;;;;;;24.00;23.67;;;;;;;;5101484;27;46451;-76
2022/05/06 00:37:20;;;;;;;;;22.67;22.67;;;;;;;;5100049;27;45243;-75
2022/05/06 00:39:46;;;;;;;;;24.00;21.00;;;;;;;;5101662;27;45216;-76
2022/05/06 00:42:11;;;;;;;;;21.33;20.00;;;;;;;;5101302;27;45531;-75
2022/05/06 00:44:36;;;;;;;;;26.33;24.00;;;;;;;;5101431;27;46296;-75
2022/05/06 00:47:03;;;;;;;;;24.67;23.00;;;;;;;;5117431;27;45782;-75
2022/05/06 00:49:28;;;;;;;;;24.33;23.67;;;;;;;;5099668;27;45385;-76
2022/05/06 00:51:53;;;;;;;;;23.33;20.00;;;;;;;;5101147;27;45399;-76
2022/05/06 00:54:21;;;;;;;;;24.33;24.33;;;;;;;;5099833;27;48752;-75
2022/05/06 00:56:46;;;;;;;;;22.00;21.25;;;;;;;;5101099;27;45346;-76
2022/05/06 00:59:13;;;;;;;;;20.67;18.33;;;;;;;;5101307;27;45417;-76
2022/05/06 01:01:38;;;;;;;;;25.00;22.33;;;;;;;;5101265;27;45283;-76
2022/05/06 01:04:04;;;;;;;;;22.67;22.00;;;;;;;;5100915;27;45277;-77
2022/05/06 01:06:29;;;;;;;;;24.25;24.25;;;;;;;;5101055;27;45264;-75
2022/05/06 01:08:54;;;;;;;;;29.75;26.00;;;;;;;;5101164;27;45517;-75
2022/05/06 01:11:20;;;;;;;;;23.33;22.67;;;;;;;;5100752;27;45192;-75
2022/05/06 01:13:46;;;;;;;;;28.00;25.50;;;;;;;;5101148;27;46181;-76
2022/05/06 01:16:12;;;;;;;;;29.00;27.75;;;;;;;;5086814;27;45166;-77
2022/05/06 01:18:37;;;;;;;;;24.33;22.67;;;;;;;;5080672;27;45256;-75
2022/05/06 01:21:03;;;;;;;;;25.00;24.33;;;;;;;;5080171;28;45324;-75
2022/05/06 01:23:28;;;;;;;;;23.50;23.25;;;;;;;;5080117;27;46328;-75
2022/05/06 01:25:54;;;;;;;;;25.50;25.25;;;;;;;;5078567;28;45326;-75
2022/05/06 01:28:20;;;;;;;;;23.33;22.67;;;;;;;;5079018;28;45298;-75
2022/05/06 01:33:31;;;;;;;;;32.75;29.75;;;;;;;;5113825;27;45271;-76
2022/05/06 01:36:08;;;;;;;;;28.25;27.50;;;;;;;;5117263;27;45333;-76
2022/05/06 01:38:50;;;;;;;;;29.00;26.00;;;;;;;;5117353;27;45364;-75
2022/05/06 01:41:20;;;;;;;;;33.00;30.75;;;;;;;;5115476;27;45385;-75
2022/05/06 01:43:47;;;;;;;;;31.00;28.75;;;;;;;;5116775;27;46361;-75
2022/05/06 01:46:15;;;;;;;;;30.75;27.50;;;;;;;;5117250;27;45303;-75
2022/05/06 01:48:41;;;;;;;;;34.50;31.00;;;;;;;;5117449;27;45228;-76
2022/05/06 01:51:09;;;;;;;;;33.50;29.00;;;;;;;;5117061;27;45520;-75
2022/05/06 01:53:35;;;;;;;;;29.75;27.75;;;;;;;;5116780;27;45389;-75
2022/05/06 01:56:02;;;;;;;;;32.50;30.00;;;;;;;;5115185;27;45455;-75
2022/05/06 01:58:27;;;;;;;;;35.00;32.00;;;;;;;;5117230;27;45323;-75
2022/05/06 02:00:52;;;;;;;;;26.50;26.00;;;;;;;;5116735;27;45322;-75
2022/05/06 02:06:01;;;;;;;;;29.50;28.00;;;;;;;;5116709;27;45333;-75
2022/05/06 02:08:26;;;;;;;;;29.25;29.25;;;;;;;;5116843;27;45349;-76
2022/05/06 02:10:52;;;;;;;;;31.25;30.50;;;;;;;;5116650;27;45343;-75
2022/05/06 02:13:18;;;;;;;;;31.50;27.50;;;;;;;;5115334;27;47233;-75
2022/05/06 02:15:44;;;;;;;;;30.00;29.00;;;;;;;;5126822;27;45333;-75
2022/05/06 02:18:09;;;;;;;;;33.25;29.75;;;;;;;;5137445;27;45275;-75
2022/05/06 02:20:35;;;;;;;;;34.50;31.25;;;;;;;;5137378;27;45314;-75
2022/05/06 02:23:00;;;;;;;;;38.75;32.50;;;;;;;;5137183;27;46322;-75
2022/05/06 02:25:25;;;;;;;;;33.75;31.25;;;;;;;;5135918;27;45359;-74
2022/05/06 02:27:50;;;;;;;;;36.50;32.50;;;;;;;;5136149;27;45466;-75
2022/05/06 02:33:13;;;;;;;;;35.00;32.25;;;;;;;;5114631;27;45387;-75
2022/05/06 02:35:39;;;;;;;;;34.00;31.50;;;;;;;;5137189;27;45350;-75
2022/05/06 02:38:05;;;;;;;;;36.50;31.00;;;;;;;;5137096;27;45393;-75
2022/05/06 02:40:31;;;;;;;;;36.75;33.00;;;;;;;;5136996;27;45463;-76
2022/05/06 02:42:57;;;;;;;;;37.50;32.00;;;;;;;;5133870;27;46192;-75
2022/05/06 02:45:22;;;;;;;;;36.75;33.50;;;;;;;;5123374;27;45302;-75
2022/05/06 02:47:47;;;;;;;;;37.00;31.50;;;;;;;;5123457;27;45332;-75
2022/05/06 02:50:12;;;;;;;;;34.25;31.75;;;;;;;;5123312;27;45487;-75
2022/05/06 02:52:37;;;;;;;;;32.25;31.00;;;;;;;;5122940;27;46540;-75
2022/05/06 02:55:03;;;;;;;;;35.75;31.75;;;;;;;;5123073;27;45326;-75
2022/05/06 02:57:28;;;;;;;;;39.75;32.50;;;;;;;;5123238;27;45258;-75
2022/05/06 02:59:53;;;;;;;;;30.25;28.25;;;;;;;;5121580;27;45893;-75
2022/05/06 03:02:19;;;;;;;;;38.00;32.00;;;;;;;;5123182;27;46070;-75
2022/05/06 03:04:44;;;;;;;;;39.00;34.00;;;;;;;;5122983;27;45376;-77
2022/05/06 03:07:09;;;;;;;;;39.25;34.00;;;;;;;;5121361;27;45332;-76
2022/05/06 03:09:34;;;;;;;;;32.75;31.50;;;;;;;;5122748;27;45289;-75
2022/05/06 03:12:00;;;;;;;;;36.25;33.00;;;;;;;;5121081;27;48046;-75
2022/05/06 03:14:25;;;;;;;;;37.00;32.00;;;;;;;;5122790;27;45278;-75
2022/05/06 03:16:50;;;;;;;;;36.25;32.00;;;;;;;;5103081;27;45295;-76
2022/05/06 03:19:16;;;;;;;;;35.50;32.00;;;;;;;;5101917;27;45309;-75
2022/05/06 03:21:42;;;;;;;;;34.50;32.25;;;;;;;;5102018;27;46135;-75
2022/05/06 03:24:07;;;;;;;;;33.50;31.50;;;;;;;;5100648;27;45290;-75
2022/05/06 03:26:33;;;;;;;;;41.50;35.00;;;;;;;;5101924;27;45328;-75
2022/05/06 03:28:58;;;;;;;;;38.25;34.75;;;;;;;;5101781;27;45435;-75
2022/05/06 03:31:26;;;;;;;;;37.00;32.00;;;;;;;;5101539;27;45628;-76
2022/05/06 03:33:52;;;;;;;;;39.25;34.75;;;;;;;;5101837;27;45422;-75
2022/05/06 03:36:18;;;;;;;;;29.00;26.50;;;;;;;;5100362;27;45288;-76
2022/05/06 03:38:43;;;;;;;;;37.00;32.00;;;;;;;;5100055;27;45885;-75
2022/05/06 03:41:08;;;;;;;;;35.50;32.50;;;;;;;;5101323;27;45243;-76
2022/05/06 03:43:33;;;;;;;;;26.33;26.33;;;;;;;;5101759;27;45247;-76
2022/05/06 03:45:58;;;;;;;;;37.75;32.00;;;;;;;;5101803;27;45274;-75
2022/05/06 03:48:27;;;;;;;;;34.00;30.75;;;;;;;;5101541;27;45326;-75
2022/05/06 03:53:36;;;;;;;;;36.25;33.00;;;;;;;;5101234;27;45302;-75
2022/05/06 03:56:01;;;;;;;;;37.00;32.50;;;;;;;;5100310;27;45230;-75
2022/05/06 03:58:26;;;;;;;;;37.75;33.50;;;;;;;;5101435;27;45258;-75
2022/05/06 04:00:52;;;;;;;;;31.75;30.50;;;;;;;;5101520;27;46191;-75
2022/05/06 04:03:18;;;;;;;;;36.50;30.00;;;;;;;;5101195;27;45365;-75
2022/05/06 04:05:43;;;;;;;;;39.25;33.50;;;;;;;;5101474;27;45289;-75
2022/05/06 04:08:08;;;;;;;;;33.25;30.25;;;;;;;;5099709;27;46364;-75
2022/05/06 04:10:34;;;;;;;;;34.75;31.50;;;;;;;;5100947;27;45288;-75
2022/05/06 04:12:59;;;;;;;;;40.75;33.25;;;;;;;;5101169;27;45319;-75
2022/05/06 04:15:25;;;;;;;;;38.25;34.25;;;;;;;;5108563;27;45285;-76
2022/05/06 04:17:50;;;;;;;;;33.00;30.75;;;;;;;;5120223;27;46108;-76
2022/05/06 04:25:43;;;;;;;;;34.00;31.50;;;;;;;;5121472;27;45496;-75
2022/05/06 04:28:08;;;;;;;;;38.50;33.50;;;;;;;;5121381;27;45515;-75
2022/05/06 04:30:34;;;;;;;;;37.25;33.50;;;;;;;;5120234;27;47939;-75
2022/05/06 04:32:59;;;;;;;;;33.25;32.00;;;;;;;;5121265;27;45421;-76
2022/05/06 04:35:24;;;;;;;;;41.75;33.75;;;;;;;;5121598;27;45337;-77
2022/05/06 04:37:50;;;;;;;;;35.50;32.00;;;;;;;;5119991;27;46546;-76
2022/05/06 04:40:16;;;;;;;;;42.25;33.75;;;;;;;;5121388;27;46510;-75
2022/05/06 04:42:42;;;;;;;;;39.50;34.25;;;;;;;;5119820;27;45363;-75
2022/05/06 04:45:07;;;;;;;;;35.50;32.50;;;;;;;;5121568;27;45199;-75
2022/05/06 04:47:34;;;;;;;;;43.75;35.75;;;;;;;;5121229;27;45560;-76
2022/05/06 04:50:00;;;;;;;;;36.00;33.50;;;;;;;;5119831;27;48450;-75
2022/05/06 04:52:25;;;;;;;;;40.00;35.00;;;;;;;;5120990;27;45357;-76
2022/05/06 04:54:50;;;;;;;;;36.25;32.00;;;;;;;;5121293;27;45328;-75
2022/05/06 04:57:16;;;;;;;;;37.25;32.75;;;;;;;;5119626;27;47201;-75
2022/05/06 04:59:47;;;;;;;;;38.25;33.50;;;;;;;;5119547;27;47896;-75
2022/05/06 05:02:12;;;;;;;;;36.50;33.00;;;;;;;;5119434;27;45656;-76
2022/05/06 05:04:38;;;;;;;;;44.00;37.25;;;;;;;;5121228;27;45328;-75
2022/05/06 05:07:03;;;;;;;;;44.75;38.75;;;;;;;;5119109;27;46345;-75
2022/05/06 05:09:29;;;;;;;;;45.75;39.00;;;;;;;;5120871;27;45678;-75
2022/05/06 05:11:54;;;;;;;;;47.00;39.00;;;;;;;;5120828;27;45290;-75
2022/05/06 05:14:19;;;;;;;;;46.50;36.75;;;;;;;;5119539;27;45538;-76
2022/05/06 05:16:44;;;;;;;;;41.75;34.75;;;;;;;;5101701;27;45481;-76
2022/05/06 05:19:09;;;;;;;;;45.00;36.00;;;;;;;;5098600;27;48285;-76
2022/05/06 05:21:35;;;;;;;;;44.00;36.50;;;;;;;;5098797;27;45354;-76
2022/05/06 05:24:00;;;;;;;;;48.50;39.75;;;;;;;;5100472;27;45301;-76
2022/05/06 05:26:25;;;;;;;;;39.25;34.00;;;;;;;;5095095;27;46105;-75
2022/05/06 05:28:51;;;;;;;;;43.25;36.75;;;;;;;;5100386;27;46346;-75
2022/05/06 05:31:16;;;;;;;;;46.75;38.00;;;;;;;;5099861;27;45294;-75
2022/05/06 05:33:41;;;;;;;;;49.00;39.00;;;;;;;;5100222;27;45270;-77
2022/05/06 05:36:06;;;;;;;;;46.25;36.75;;;;;;;;5100395;27;45580;-78
2022/05/06 05:38:32;;;;;;;;;45.25;36.75;;;;;;;;5099756;27;45397;-76
2022/05/06 05:40:57;;;;;;;;;49.00;38.75;;;;;;;;5099779;27;45340;-75
2022/05/06 05:48:51;;;;;;;;;48.00;39.50;;;;;;;;5099389;27;45743;-77
2022/05/06 05:51:16;;;;;;;;;51.00;41.50;;;;;;;;5099512;27;45345;-76
2022/05/06 05:53:42;;;;;;;;;48.75;39.00;;;;;;;;5098309;27;45294;-76
2022/05/06 05:56:07;;;;;;;;;46.75;38.00;;;;;;;;5098128;27;46186;-77
2022/05/06 05:58:34;;;;;;;;;48.75;39.00;;;;;;;;5099598;27;46218;-81
2022/05/06 06:00:59;;;;;;;;;51.25;39.75;;;;;;;;5098470;27;46121;-75
2022/05/06 06:03:24;;;;;;;;;45.00;35.75;;;;;;;;5099721;27;45305;-75
2022/05/06 06:05:50;;;;;;;;;45.25;37.50;;;;;;;;5098195;27;46060;-75
2022/05/06 06:08:15;;;;;;;;;49.25;40.25;;;;;;;;5094980;27;46659;-75
2022/05/06 06:10:40;;;;;;;;;48.75;40.00;;;;;;;;5098110;27;45297;-74
2022/05/06 06:13:05;;;;;;;;;51.50;42.00;;;;;;;;5099477;27;45606;-77
2022/05/06 06:15:31;;;;;;;;;47.75;39.25;;;;;;;;5106115;27;46629;-75
2022/05/06 06:17:57;;;;;;;;;46.75;37.75;;;;;;;;5118624;27;47450;-74
2022/05/06 06:20:23;;;;;;;;;45.25;37.25;;;;;;;;5123453;27;45355;-74
2022/05/06 06:22:49;;;;;;;;;42.00;35.25;;;;;;;;5123648;27;45416;-78
2022/05/06 06:25:14;;;;;;;;;46.75;39.25;;;;;;;;5123442;27;45770;-74
2022/05/06 06:27:39;;;;;;;;;48.50;40.75;;;;;;;;5121807;27;47386;-79
2022/05/06 06:30:05;;;;;;;;;49.50;39.25;;;;;;;;5123403;27;45263;-77
2022/05/06 06:32:30;;;;;;;;;47.50;39.50;;;;;;;;5123279;27;45333;-75
2022/05/06 06:34:55;;;;;;;;;51.00;41.00;;;;;;;;5123379;27;45533;-77
2022/05/06 06:37:21;;;;;;;;;50.25;41.50;;;;;;;;5122913;27;45303;-78
2022/05/06 06:39:46;;;;;;;;;48.25;40.50;;;;;;;;5123225;27;45261;-78
2022/05/06 06:42:11;;;;;;;;;47.00;39.50;;;;;;;;5123636;27;45262;-80
2022/05/06 06:44:36;;;;;;;;;50.50;40.50;;;;;;;;5122565;27;46157;-79
2022/05/06 06:47:07;;;;;;;;;48.50;41.25;;;;;;;;5123030;27;45308;-76
2022/05/06 06:49:32;;;;;;;;;50.75;41.75;;;;;;;;5123551;27;45296;-78
2022/05/06 06:51:57;;;;;;;;;50.50;42.25;;;;;;;;5123027;27;45273;-79
2022/05/06 06:54:23;;;;;;;;;50.75;41.50;;;;;;;;5121925;27;46427;-77
2022/05/06 06:56:48;;;;;;;;;44.00;37.50;;;;;;;;5111990;27;45462;-80
2022/05/06 06:59:13;;;;;;;;;47.25;40.50;;;;;;;;5101887;27;46026;-76
2022/05/06 07:01:38;;;;;;;;;50.50;42.00;;;;;;;;5102909;27;45329;-79
2022/05/06 07:04:04;;;;;;;;;48.50;40.50;;;;;;;;5102259;27;45360;-80
2022/05/06 07:11:57;;;;;;;;;47.75;40.75;;;;;;;;5104557;27;45343;-78
2022/05/06 07:14:23;;;;;;;;;48.75;38.00;;;;;;;;5097636;27;46879;-75
2022/05/06 07:16:49;;;;;;;;;48.00;40.50;;;;;;;;5096346;27;45571;-77
2022/05/06 07:19:14;;;;;;;;;46.50;36.75;;;;;;;;5101250;27;45360;-76
2022/05/06 07:21:39;;;;;;;;;49.25;39.75;;;;;;;;5102235;27;45210;-78
2022/05/06 07:24:05;;;;;;;;;44.50;37.50;;;;;;;;5101265;27;45274;-78
2022/05/06 07:26:30;;;;;;;;;48.25;40.50;;;;;;;;5100469;27;46905;-75
2022/05/06 07:28:56;;;;;;;;;47.50;40.00;;;;;;;;5100210;27;45578;-76
2022/05/06 07:31:21;;;;;;;;;49.25;42.00;;;;;;;;5101380;27;45221;-75
2022/05/06 07:33:46;;;;;;;;;58.00;47.25;;;;;;;;5099074;27;47462;-74
2022/05/06 07:36:11;;;;;;;;;50.00;40.75;;;;;;;;5101519;27;45328;-73
2022/05/06 07:38:36;;;;;;;;;54.00;43.50;;;;;;;;5100232;27;45922;-74
2022/05/06 07:41:03;;;;;;;;;47.50;39.00;;;;;;;;5100097;27;45591;-74
2022/05/06 07:43:28;;;;;;;;;50.25;42.25;;;;;;;;5101126;27;45235;-75
2022/05/06 07:45:53;;;;;;;;;48.50;40.25;;;;;;;;5097506;27;47280;-74
2022/05/06 07:48:19;;;;;;;;;58.00;45.25;;;;;;;;5097841;27;45431;-80
2022/05/06 07:50:44;;;;;;;;;54.00;43.75;;;;;;;;5097522;27;45431;-76
2022/05/06 07:53:11;;;;;;;;;51.25;42.25;;;;;;;;5099870;27;47333;-78
2022/05/06 07:55:36;;;;;;;;;48.75;40.50;;;;;;;;5082786;27;47285;-78
2022/05/06 07:58:02;;;;;;;;;41.00;33.75;;;;;;;;5087746;27;45638;-75
2022/05/06 08:00:27;;;;;;;;;47.00;39.50;;;;;;;;5101335;27;45362;-77
2022/05/06 08:05:39;;;;;;;;;45.25;37.25;;;;;;;;5101377;27;45873;-78
2022/05/06 08:08:04;;;;;;;;;45.75;37.75;;;;;;;;5098981;27;45299;-77
2022/05/06 08:10:29;;;;;;;;;55.50;43.00;;;;;;;;5098873;27;45329;-76
2022/05/06 08:12:55;;;;;;;;;366.00;271.67;;;;;;;;5100745;27;45314;-76
2022/05/06 08:15:20;;;;;;;;;55.25;42.00;;;;;;;;5112278;27;45993;-77
2022/05/06 08:17:46;;;;;;;;;54.00;43.25;;;;;;;;5124869;27;45273;-78
2022/05/06 08:20:12;;;;;;;;;46.75;39.00;;;;;;;;5122829;27;45346;-77
2022/05/06 08:22:37;;;;;;;;;42.75;36.00;;;;;;;;5121863;27;45283;-76
2022/05/06 08:25:04;;;;;;;;;40.25;34.50;;;;;;;;5121644;27;45273;-75
2022/05/06 08:27:34;;;;;;;;;45.00;38.00;;;;;;;;5119898;27;45730;-76
2022/05/06 08:30:00;;;;;;;;;41.50;35.25;;;;;;;;5108517;27;45416;-75
2022/05/06 08:32:25;;;;;;;;;44.25;37.25;;;;;;;;5099454;27;45989;-76
2022/05/06 08:34:50;;;;;;;;;45.75;39.25;;;;;;;;5100303;27;46094;-77
2022/05/06 08:37:15;;;;;;;;;45.00;37.00;;;;;;;;5090117;27;45311;-78
2022/05/06 08:39:40;;;;;;;;;36.25;33.00;;;;;;;;5101094;27;45322;-76
2022/05/06 08:42:08;;;;;;;;;42.75;34.50;;;;;;;;5098429;27;46112;-75
2022/05/06 08:52:47;;;;;;;;;32.00;30.00;;;;;;;;5100251;27;45337;-75
2022/05/06 08:55:12;;;;;;;;;40.75;34.50;;;;;;;;5098057;27;46158;-75
2022/05/06 08:57:37;;;;;;;;;48.75;39.00;;;;;;;;5096681;27;45803;-76
2022/05/06 09:00:04;;;;;;;;;26.00;23.00;;;;;;;;5097573;27;45524;-76
2022/05/06 09:02:29;;;;;;;;;21.33;21.00;;;;;;;;5099508;27;45461;-75
2022/05/06 09:04:54;;;;;;;;;26.00;25.33;;;;;;;;5090110;27;47162;-76
2022/05/06 09:07:21;;;;;;;;;22.33;22.33;;;;;;;;5099530;27;45621;-77
2022/05/06 09:10:05;;;;;;;;;27.00;26.67;;;;;;;;5101648;27;45376;-76
2022/05/06 09:12:48;;;;;;;;;28.67;25.67;;;;;;;;5090413;27;45474;-79
2022/05/06 09:17:59;;;;;;;;;30.67;28.67;;;;;;;;5090783;27;45242;-74
2022/05/06 09:20:25;;;;;;;;;23.33;22.67;;;;;;;;5090592;27;45500;-74
2022/05/06 09:22:51;;;;;;;;;24.00;24.00;;;;;;;;5093975;27;45371;-75
2022/05/06 09:25:34;;;;;;;;;24.00;23.33;;;;;;;;5099392;27;45399;-74
2022/05/06 09:27:59;;;;;;;;;26.00;25.00;;;;;;;;5100190;27;45210;-75
2022/05/06 09:30:24;;;;;;;;;24.67;23.33;;;;;;;;5099875;27;45419;-75
2022/05/06 09:32:50;;;;;;;;;23.00;23.00;;;;;;;;5098203;27;46006;-74
2022/05/06 09:35:15;;;;;;;;;24.00;22.00;;;;;;;;5099765;27;46184;-75
2022/05/06 09:37:41;;;;;;;;;23.33;23.33;;;;;;;;5098304;27;45278;-75
2022/05/06 09:40:07;;;;;;;;;27.00;26.67;;;;;;;;5098475;27;45587;-75
2022/05/06 09:42:33;;;;;;;;;34.00;30.33;;;;;;;;5099605;27;45321;-75
2022/05/06 09:44:58;;;;;;;;;67.25;50.75;;;;;;;;5097291;27;47533;-74
2022/05/06 09:47:25;;;;;;;;;69.75;58.50;;;;;;;;5096631;27;45401;-74
2022/05/06 09:49:52;;;;;;;;;24.00;23.67;;;;;;;;5099378;27;45339;-75
2022/05/06 09:52:17;;;;;;;;;29.33;27.67;;;;;;;;5099935;27;45309;-76
2022/05/06 09:54:43;;;;;;;;;26.33;26.33;;;;;;;;5101085;27;46361;-75
2022/05/06 09:57:12;;;;;;;;;24.00;22.33;;;;;;;;5102648;27;45429;-78
2022/05/06 09:59:37;;;;;;;;;20.67;20.00;;;;;;;;5085943;27;45468;-77
2022/05/06 10:02:06;;;;;;;;;24.67;23.67;;;;;;;;5082882;27;45374;-75
2022/05/06 10:04:32;;;;;;;;;21.00;20.00;;;;;;;;5101615;27;45474;-77
2022/05/06 10:06:59;;;;;;;;;22.33;21.00;;;;;;;;5103217;27;45191;-76
2022/05/06 10:09:25;;;;;;;;;24.67;23.33;;;;;;;;5098828;27;45214;-76
2022/05/06 10:11:51;;;;;;;;;20.00;19.67;;;;;;;;5102970;27;45409;-75
2022/05/06 10:14:17;;;;;;;;;19.33;18.67;;;;;;;;5102904;27;45504;-76
2022/05/06 10:16:42;;;;;;;;;23.33;23.33;;;;;;;;5119849;27;46043;-78
2022/05/06 10:19:26;;;;;;;;;42.67;35.33;;;;;;;;5122509;27;45395;-76
2022/05/06 10:21:52;;;;;;;;;39.67;32.00;;;;;;;;5123260;27;45472;-77
2022/05/06 10:24:18;;;;;;;;;44.00;36.67;;;;;;;;5120830;27;47083;-76
2022/05/06 10:26:45;;;;;;;;;25.67;23.33;;;;;;;;5120684;27;45580;-76
2022/05/06 10:32:28;;;;;;;;;62.00;49.25;;;;;;;;5122861;27;45280;-76
2022/05/06 10:35:04;;;;;;;;;29.33;27.00;;;;;;;;5123056;27;45362;-77
2022/05/06 10:37:37;;;;;;;;;24.00;23.33;;;;;;;;5122960;27;45418;-77
2022/05/06 10:40:21;;;;;;;;;21.00;20.67;;;;;;;;5123388;27;45474;-77
2022/05/06 10:42:46;;;;;;;;;23.33;21.00;;;;;;;;5122771;27;45991;-77
2022/05/06 10:45:21;;;;;;;;;47.00;37.33;;;;;;;;5122900;27;45300;-76
2022/05/06 10:47:47;;;;;;;;;22.00;20.67;;;;;;;;5120718;27;45277;-78
2022/05/06 10:50:13;;;;;;;;;17.00;16.00;;;;;;;;5101511;27;45452;-75
2022/05/06 10:52:39;;;;;;;;;55.25;42.50;;;;;;;;5096968;27;45493;-77
2022/05/06 10:55:04;;;;;;;;;32.33;30.33;;;;;;;;5080885;27;45277;-75
2022/05/06 10:57:31;;;;;;;;;17.67;17.67;;;;;;;;5081161;27;45303;-77
2022/05/06 11:00:03;;;;;;;;;15.67;14.33;;;;;;;;5080037;27;45321;-77
2022/05/06 11:02:28;;;;;;;;;18.67;17.67;;;;;;;;5080179;27;46179;-77
2022/05/06 11:04:58;;;;;;;;;18.67;18.33;;;;;;;;5079676;27;47844;-76
2022/05/06 11:07:23;;;;;;;;;15.00;15.00;;;;;;;;5081161;27;45367;-76
2022/05/06 11:09:49;;;;;;;;;17.33;16.67;;;;;;;;5081585;27;45510;-76
2022/05/06 11:12:30;;;;;;;;;15.00;14.00;;;;;;;;5080560;27;46410;-78
2022/05/06 11:14:56;;;;;;;;;17.00;16.33;;;;;;;;5105296;27;45376;-76
2022/05/06 11:17:24;;;;;;;;;26.33;23.67;;;;;;;;5122779;27;45751;-75
2022/05/06 11:19:50;;;;;;;;;18.67;18.67;;;;;;;;5123163;27;45382;-75
2022/05/06 11:22:16;;;;;;;;;19.00;16.67;;;;;;;;5121829;27;45388;-76
2022/05/06 11:24:43;;;;;;;;;18.33;17.67;;;;;;;;5123361;27;47127;-75
2022/05/06 11:27:18;;;;;;;;;15.67;15.67;;;;;;;;5122448;27;45286;-76
2022/05/06 11:29:47;;;;;;;;;16.33;16.33;;;;;;;;5122619;27;45269;-76
2022/05/06 11:32:13;;;;;;;;;14.00;13.67;;;;;;;;5121178;27;47226;-75
2022/05/06 11:34:42;;;;;;;;;13.33;13.00;;;;;;;;5124091;27;45364;-75
2022/05/06 11:37:07;;;;;;;;;16.00;16.00;;;;;;;;5122090;27;45310;-78
2022/05/06 11:39:32;;;;;;;;;23.00;22.00;;;;;;;;5122424;27;45420;-75
2022/05/06 11:42:17;;;;;;;;;31.33;27.33;;;;;;;;5120879;27;47026;-74
2022/05/06 11:47:29;;;;;;;;;16.33;16.33;;;;;;;;5100770;27;45246;-75
2022/05/06 11:49:55;;;;;;;;;16.00;15.00;;;;;;;;5088620;27;45308;-74
2022/05/06 11:52:20;;;;;;;;;14.00;13.33;;;;;;;;5080999;27;45501;-76
2022/05/06 11:54:46;;;;;;;;;15.00;14.67;;;;;;;;5080936;27;45311;-77
2022/05/06 11:57:13;;;;;;;;;16.00;16.00;;;;;;;;5080872;27;45446;-77
2022/05/06 11:59:38;;;;;;;;;14.00;14.00;;;;;;;;5081163;27;45364;-77
2022/05/06 12:02:06;;;;;;;;;15.00;15.00;;;;;;;;5080962;28;45353;-80
2022/05/06 12:04:33;;;;;;;;;31.33;28.33;;;;;;;;5081710;27;46461;-78
2022/05/06 12:06:58;;;;;;;;;15.67;15.00;;;;;;;;5077968;28;45384;-77
2022/05/06 12:09:28;;;;;;;;;39.33;31.67;;;;;;;;5080563;27;45543;-78
2022/05/06 12:12:04;;;;;;;;;18.33;17.67;;;;;;;;5080540;27;45395;-78
2022/05/06 12:14:29;;;;;;;;;13.00;12.67;;;;;;;;5080286;28;48003;-78
2022/05/06 12:16:55;;;;;;;;;11.33;10.00;;;;;;;;5119956;27;45477;-78
2022/05/06 12:19:33;;;;;;;;;13.67;12.67;;;;;;;;5124050;27;45364;-78
2022/05/06 12:22:05;;;;;;;;;13.67;13.67;;;;;;;;5121037;27;47352;-77
2022/05/06 12:24:37;;;;;;;;;12.67;12.67;;;;;;;;5120271;27;45689;-79
2022/05/06 12:27:02;;;;;;;;;14.67;13.33;;;;;;;;5101219;27;46451;-80
2022/05/06 12:29:34;;;;;;;;;14.33;13.00;;;;;;;;5095525;27;45535;-79
2022/05/06 12:32:00;;;;;;;;;12.67;12.67;;;;;;;;5097166;27;47338;-80
2022/05/06 12:34:31;;;;;;;;;12.00;12.00;;;;;;;;5100780;27;46434;-80
2022/05/06 12:37:09;;;;;;;;;12.67;12.67;;;;;;;;5097430;27;45465;-81
2022/05/06 12:39:39;;;;;;;;;11.67;10.67;;;;;;;;5098206;27;45263;-80
2022/05/06 12:42:12;;;;;;;;;10.00;10.00;;;;;;;;5101540;27;45400;-83
2022/05/06 12:44:38;;;;;;;;;8.67;8.67;;;;;;;;5100665;27;45424;-82
2022/05/06 12:50:04;;;;;;;;;10.00;10.00;;;;;;;;5095579;27;45169;-79
2022/05/06 12:52:31;;;;;;;;;10.67;10.67;;;;;;;;5101596;27;45546;-80
2022/05/06 12:54:56;;;;;;;;;9.33;9.33;;;;;;;;5100373;27;48440;-79
2022/05/06 12:57:23;;;;;;;;;14.00;12.33;;;;;;;;5098508;27;45764;-80
2022/05/06 12:59:49;;;;;;;;;21.33;17.67;;;;;;;;5100783;27;45399;-79
2022/05/06 13:02:14;;;;;;;;;18.33;16.33;;;;;;;;5093505;27;45433;-80
2022/05/06 13:04:39;;;;;;;;;10.00;10.00;;;;;;;;5097628;27;45553;-80
2022/05/06 13:07:04;;;;;;;;;9.67;9.67;;;;;;;;5099417;27;45702;-79
2022/05/06 13:09:30;;;;;;;;;8.00;7.00;;;;;;;;5101751;27;45356;-80
2022/05/06 13:11:55;;;;;;;;;7.67;7.67;;;;;;;;5098899;27;45416;-79
2022/05/06 13:14:23;;;;;;;;;7.00;7.00;;;;;;;;5100973;27;45833;-79
2022/05/06 13:16:49;;;;;;;;;10.67;10.00;;;;;;;;5119392;27;46171;-79
2022/05/06 13:19:14;;;;;;;;;7.67;7.67;;;;;;;;5120960;27;45432;-79
2022/05/06 13:21:39;;;;;;;;;12.00;12.00;;;;;;;;5120678;27;45482;-79
2022/05/06 13:24:05;;;;;;;;;10.00;8.67;;;;;;;;5122552;27;47269;-80
2022/05/06 13:26:30;;;;;;;;;9.33;9.33;;;;;;;;5121493;27;45376;-79
2022/05/06 13:28:56;;;;;;;;;77.25;68.00;;;;;;;;5121530;27;45341;-80
2022/05/06 13:31:21;;;;;;;;;8.33;8.33;;;;;;;;5121678;27;45347;-79
2022/05/06 13:33:47;;;;;;;;;69.25;58.50;;;;;;;;5120754;27;47569;-79
2022/05/06 13:36:12;;;;;;;;;16.67;13.67;;;;;;;;5123280;27;45300;-79
2022/05/06 13:38:38;;;;;;;;;9.00;7.67;;;;;;;;5126595;27;45339;-78
2022/05/06 13:41:03;;;;;;;;;8.33;7.00;;;;;;;;5124615;27;46036;-78
2022/05/06 13:43:29;;;;;;;;;7.33;7.33;;;;;;;;5124130;27;45344;-79
2022/05/06 13:45:54;;;;;;;;;6.00;6.00;;;;;;;;5124626;27;45312;-79
2022/05/06 13:48:20;;;;;;;;;9.00;7.33;;;;;;;;5121958;27;45344;-79
2022/05/06 13:50:45;;;;;;;;;10.33;8.33;;;;;;;;5106042;27;46075;-79
2022/05/06 13:53:10;;;;;;;;;6.67;6.67;;;;;;;;5098933;27;47569;-78
2022/05/06 14:01:03;;;;;;;;;5.33;5.00;;;;;;;;5097441;27;45957;-79
2022/05/06 14:03:29;;;;;;;;;7.00;6.33;;;;;;;;5094976;27;45413;-79
2022/05/06 14:05:54;;;;;;;;;7.33;6.67;;;;;;;;5097457;27;45309;-80
2022/05/06 14:08:19;;;;;;;;;5.67;5.00;;;;;;;;5101776;27;45407;-80
2022/05/06 14:10:45;;;;;;;;;7.33;7.00;;;;;;;;5101047;27;45496;-79
2022/05/06 14:13:10;;;;;;;;;8.33;8.33;;;;;;;;5080961;27;45415;-80
2022/05/06 14:15:35;;;;;;;;;7.33;7.33;;;;;;;;5094043;27;45210;-79
2022/05/06 14:18:00;;;;;;;;;5.67;5.67;;;;;;;;5105720;27;45245;-78
2022/05/06 14:20:26;;;;;;;;;5.33;5.33;;;;;;;;5102166;27;45583;-78
2022/05/06 14:22:51;;;;;;;;;4.33;4.33;;;;;;;;5097457;27;45241;-79
2022/05/06 14:25:16;;;;;;;;;6.00;5.33;;;;;;;;5097880;27;45203;-78
2022/05/06 14:27:42;;;;;;;;;7.00;7.00;;;;;;;;5097172;27;45400;-78
2022/05/06 14:30:09;;;;;;;;;4.33;4.33;;;;;;;;5092352;27;46039;-78
2022/05/06 14:32:34;;;;;;;;;4.00;4.00;;;;;;;;5100450;27;45301;-77
2022/05/06 14:35:16;;;;;;;;;22.33;21.00;;;;;;;;5096134;27;45190;-79
2022/05/06 14:37:41;;;;;;;;;12.67;11.67;;;;;;;;5093231;27;45570;-79
2022/05/06 14:40:06;;;;;;;;;5.00;5.00;;;;;;;;5100977;27;45544;-77
2022/05/06 14:42:32;;;;;;;;;3.00;3.00;;;;;;;;5103024;27;46019;-77
2022/05/06 14:44:59;;;;;;;;;6.33;6.33;;;;;;;;5100995;27;45680;-78
2022/05/06 14:47:24;;;;;;;;;6.33;5.00;;;;;;;;5100390;27;45286;-78
2022/05/06 14:49:49;;;;;;;;;6.00;5.00;;;;;;;;5103590;27;45196;-77
2022/05/06 14:52:15;;;;;;;;;6.00;5.67;;;;;;;;5100899;27;45532;-78
2022/05/06 14:54:41;;;;;;;;;4.67;4.00;;;;;;;;5102871;27;45286;-78
2022/05/06 14:57:06;;;;;;;;;2.67;2.67;;;;;;;;5102664;27;45227;-77
2022/05/06 14:59:31;;;;;;;;;4.00;3.00;;;;;;;;5102728;27;45326;-78
2022/05/06 15:01:56;;;;;;;;;3.33;3.33;;;;;;;;5097792;27;46026;-78
2022/05/06 15:04:22;;;;;;;;;4.00;4.00;;;;;;;;5086227;27;45413;-79
2022/05/06 15:06:47;;;;;;;;;4.00;4.00;;;;;;;;5083366;28;45385;-78
2022/05/06 15:09:14;;;;;;;;;3.33;3.33;;;;;;;;5082092;28;45426;-78
2022/05/06 15:11:39;;;;;;;;;3.67;3.67;;;;;;;;5081742;28;45275;-78